Time;durP1;ratioP1;P1;durP2;ratioP2;P2;SDS_P1;SDS_P2;PMS_P1;PMS_P2;Temp;Humidity;BMP_temperature;BMP_pressure;BME280_temperature;BME280_humidity;BME280_pressure;Samples;Min_cycle;Max_cycle;Signal;HPM_P1;HPM_P2
2023/03/02 00:02:02;;;;;;;79.85;37.30;;;;;;;-1.82;82.18;101163.16;1716735;83;26005;-48
2023/03/02 00:04:43;;;;;;;57.25;26.10;;;;;;;-1.83;81.46;101165.50;1716991;83;25476;-48
2023/03/02 00:07:16;;;;;;;84.28;37.17;;;;;;;-1.84;81.95;101164.38;1716714;82;25498;-47
2023/03/02 00:09:45;;;;;;;83.58;36.15;;;;;;;-1.84;82.21;101169.16;1741568;82;25486;-48
2023/03/02 00:12:14;;;;;;;83.47;37.20;;;;;;;-1.83;82.45;101162.84;1727010;83;27219;-48
2023/03/02 00:14:43;;;;;;;89.62;39.27;;;;;;;-1.82;82.57;101161.84;1739405;82;34644;-49
2023/03/02 00:17:12;;;;;;;81.32;36.45;;;;;;;-1.82;82.67;101163.16;1739538;82;25386;-50
2023/03/02 00:19:39;;;;;;;54.90;25.73;;;;;;;-1.81;82.91;101168.75;1739622;82;26008;-46
2023/03/02 00:22:07;;;;;;;83.30;33.70;;;;;;;-1.80;82.95;101169.07;1739401;82;25421;-47
2023/03/02 00:24:34;;;;;;;74.77;34.48;;;;;;;-1.80;83.07;101161.63;1739368;82;27208;-47
2023/03/02 00:27:03;;;;;;;84.58;36.20;;;;;;;-1.81;83.11;101162.13;1739330;82;25689;-48
2023/03/02 00:29:30;;;;;;;82.15;36.70;;;;;;;-1.82;83.11;101157.86;1739569;82;25533;-46
2023/03/02 00:31:57;;;;;;;94.95;40.25;;;;;;;-1.83;83.03;101156.73;1739376;82;25354;-47
2023/03/02 00:34:24;;;;;;;87.90;38.90;;;;;;;-1.85;82.98;101165.41;1739336;82;25468;-49
2023/03/02 00:36:52;;;;;;;84.37;37.42;;;;;;;-1.86;83.06;101159.27;1739379;82;27209;-47
2023/03/02 00:39:19;;;;;;;92.97;38.90;;;;;;;-1.86;83.17;101162.45;1739275;82;25607;-47
2023/03/02 00:41:47;;;;;;;79.67;38.88;;;;;;;-1.89;83.27;101159.19;1739421;82;25428;-47
2023/03/02 00:44:17;;;;;;;80.07;38.70;;;;;;;-1.90;83.29;101156.73;1739621;82;25376;-46
2023/03/02 00:46:45;;;;;;;;;;;;;;;-1.92;83.34;101149.50;1742002;82;25451;-50
2023/03/02 00:49:14;;;;;;;74.82;32.73;;;;;;;-1.95;83.15;101159.99;1726819;83;27202;-47
2023/03/02 00:51:43;;;;;;;84.35;37.23;;;;;;;-2.00;82.98;101155.00;1739428;82;25320;-47
2023/03/02 00:54:10;;;;;;;93.03;36.70;;;;;;;-2.04;83.09;101149.79;1739612;82;25484;-48
2023/03/02 00:56:37;;;;;;;80.17;33.98;;;;;;;-2.08;82.99;101156.02;1739337;82;25312;-47
2023/03/02 00:59:27;;;;;;;76.10;33.33;;;;;;;-2.11;83.09;101151.95;1739429;82;25511;-48
2023/03/02 01:01:59;;;;;;;79.82;35.13;;;;;;;-2.13;82.87;101148.69;1739446;82;27299;-50
2023/03/02 01:04:31;;;;;;;74.03;34.43;;;;;;;-2.16;83.07;101146.93;1739370;82;25309;-48
2023/03/02 01:07:04;;;;;;;82.72;36.35;;;;;;;-2.16;83.28;101145.61;1739468;82;25141;-48
2023/03/02 01:09:33;;;;;;;85.67;36.10;;;;;;;-2.17;83.34;101137.36;1738250;82;25354;-48
2023/03/02 01:12:00;;;;;;;72.72;34.03;;;;;;;-2.20;83.22;101137.77;1739592;82;25468;-49
2023/03/02 01:14:28;;;;;;;80.65;36.30;;;;;;;-2.24;82.95;101139.20;1739373;82;27188;-48
2023/03/02 01:16:55;;;;;;;92.10;40.50;;;;;;;-2.28;82.75;101141.45;1739259;82;27181;-48
2023/03/02 01:19:24;;;;;;;79.30;34.85;;;;;;;-2.32;82.32;101138.36;1739311;82;25397;-47
2023/03/02 01:21:52;;;;;;;86.70;35.30;;;;;;;-2.33;82.16;101141.23;1739537;82;25471;-47
2023/03/02 01:24:21;;;;;;;79.33;35.37;;;;;;;-2.34;82.32;101146.22;1739600;82;25325;-47
2023/03/02 01:26:48;;;;;;;97.27;42.60;;;;;;;-2.37;82.33;101147.94;1739630;82;27132;-48
2023/03/02 01:29:15;;;;;;;89.07;39.15;;;;;;;-2.40;82.32;101154.97;1739396;82;25407;-47
2023/03/02 01:31:43;;;;;;;78.75;35.88;;;;;;;-2.43;82.51;101152.22;1739466;82;25337;-48
2023/03/02 01:34:10;;;;;;;78.52;34.20;;;;;;;-2.45;82.74;101151.09;1739467;82;25495;-51
2023/03/02 01:36:37;;;;;;;76.47;34.67;;;;;;;-2.41;83.05;101157.33;1739529;82;25495;-48
2023/03/02 01:39:04;;;;;;;75.12;34.13;;;;;;;-2.39;83.29;101153.95;1739495;82;27204;-50
2023/03/02 01:41:33;;;;;;;77.78;33.88;;;;;;;-2.34;83.56;101152.33;1739376;82;27267;-48
2023/03/02 01:44:00;;;;;;;48.00;22.85;;;;;;;-2.29;83.93;101153.86;1739686;82;25349;-47
2023/03/02 01:46:34;;;;;;;83.67;34.67;;;;;;;-2.21;84.35;101141.42;1739418;82;25404;-48
2023/03/02 01:49:08;;;;;;;71.60;33.15;;;;;;;-2.14;84.57;101140.42;1739602;82;25365;-48
2023/03/02 01:51:41;;;;;;;76.12;35.95;;;;;;;-2.06;84.81;101140.71;1739556;82;27181;-49
2023/03/02 01:54:16;;;;;;;79.67;34.80;;;;;;;-1.99;84.87;101140.22;1739496;82;25302;-48
2023/03/02 01:56:45;;;;;;;69.77;33.30;;;;;;;-1.93;84.83;101136.73;1739640;82;25516;-47
2023/03/02 01:59:17;;;;;;;70.57;32.73;;;;;;;-1.85;84.82;101138.89;1716403;82;25515;-48
2023/03/02 02:01:50;;;;;;;78.00;33.33;;;;;;;-1.78;85.01;101123.78;1739605;82;25449;-49
2023/03/02 02:04:21;;;;;;;80.45;34.45;;;;;;;-1.71;85.26;101129.88;1739482;82;27265;-50
2023/03/02 02:06:57;;;;;;;82.27;34.33;;;;;;;-1.64;85.40;101121.39;1739525;82;25542;-48
2023/03/02 02:09:27;;;;;;;76.00;32.25;;;;;;;-1.58;85.51;101125.88;1739582;82;25472;-49
2023/03/02 02:11:56;;;;;;;77.22;32.53;;;;;;;-1.51;85.66;101122.69;1739336;82;25451;-48
2023/03/02 02:14:25;;;;;;;50.40;21.87;;;;;;;-1.44;85.91;101127.98;1739614;82;25550;-50
2023/03/02 02:16:53;;;;;;;76.40;31.15;;;;;;;-1.37;86.04;101126.64;1739591;82;33090;-48
2023/03/02 02:19:59;;;;;;;74.05;31.12;;;;;;;-1.30;86.16;101129.28;1739426;82;25314;-50
2023/03/02 02:22:57;;;;;;;74.20;28.77;;;;;;;-1.23;86.32;101131.39;1739535;82;25517;-50
2023/03/02 02:25:54;;;;;;;79.40;28.73;;;;;;;-1.15;86.34;101140.45;1739605;82;25491;-49
2023/03/02 02:28:50;;;;;;;47.78;19.67;;;;;;;-1.09;86.45;101142.28;1739655;82;25350;-50
2023/03/02 02:31:25;;;;;;;76.40;30.48;;;;;;;-1.02;86.48;101139.08;1739120;82;27311;-49
2023/03/02 02:34:01;;;;;;;70.72;27.15;;;;;;;-0.96;86.63;101136.88;1739411;82;25455;-47
2023/03/02 02:36:33;;;;;;;78.25;28.07;;;;;;;-0.90;86.68;101139.23;1738284;82;25312;-48
2023/03/02 02:39:06;;;;;;;72.65;27.13;;;;;;;-0.86;86.63;101135.11;1739477;82;25563;-49
2023/03/02 02:41:38;;;;;;;67.12;25.70;;;;;;;-0.82;86.58;101138.98;1739519;82;25453;-50
2023/03/02 02:44:11;;;;;;;67.65;25.60;;;;;;;-0.79;86.62;101130.57;1739494;82;27260;-48
2023/03/02 02:46:38;;;;;;;72.90;26.20;;;;;;;-0.73;86.40;101126.27;1739519;82;25352;-48
2023/03/02 02:49:12;;;;;;;66.12;25.68;;;;;;;-0.69;86.41;101121.34;1739466;82;25474;-49
2023/03/02 02:51:40;;;;;;;57.25;24.63;;;;;;;-0.65;86.47;101120.67;1726083;82;25600;-48
2023/03/02 02:54:13;;;;;;;62.53;24.70;;;;;;;-0.61;86.49;101125.88;1739696;82;25334;-48
2023/03/02 02:56:42;;;;;;;64.82;24.55;;;;;;;-0.57;86.50;101124.41;1739624;82;27275;-47
2023/03/02 02:59:24;;;;;;;60.98;23.98;;;;;;;-0.54;86.49;101115.21;1739502;82;25684;-48
2023/03/02 03:01:53;;;;;;;60.50;23.62;;;;;;;-0.50;86.38;101118.25;1739517;82;25318;-48
2023/03/02 03:04:26;;;;;;;57.60;22.13;;;;;;;-0.45;86.40;101115.76;1739551;82;34649;-48
2023/03/02 03:06:59;;;;;;;59.53;23.65;;;;;;;-0.42;86.41;101124.12;1739478;82;25448;-51
2023/03/02 03:09:28;;;;;;;58.65;21.25;;;;;;;-0.39;86.35;101116.23;1739595;82;27320;-51
2023/03/02 03:12:01;;;;;;;58.45;21.70;;;;;;;-0.36;86.24;101118.97;1739371;82;25365;-49
2023/03/02 03:14:35;;;;;;;58.68;22.15;;;;;;;-0.33;86.15;101118.02;1739453;82;25493;-49
2023/03/02 03:17:02;;;;;;;57.83;22.22;;;;;;;-0.29;86.13;101107.77;1739493;82;25456;-49
2023/03/02 03:19:32;;;;;;;64.67;21.45;;;;;;;-0.26;86.17;101112.13;1739472;82;25462;-49
2023/03/02 03:22:01;;;;;;;60.08;20.95;;;;;;;-0.24;86.16;101111.42;1739481;82;27159;-49
2023/03/02 03:24:33;;;;;;;62.13;25.35;;;;;;;-0.23;86.08;101111.70;1739556;82;25313;-51
2023/03/02 03:27:04;;;;;;;65.12;26.07;;;;;;;-0.20;86.15;101105.95;1739553;82;25326;-48
2023/03/02 03:29:36;;;;;;;60.80;22.95;;;;;;;-0.16;85.96;101097.55;1739473;82;25824;-49
2023/03/02 03:32:05;;;;;;;65.00;24.85;;;;;;;-0.15;85.80;101096.00;1739541;82;25511;-48
2023/03/02 03:34:39;;;;;;;;;;;;;;;-0.14;85.79;101097.61;1742002;82;27232;-51
2023/03/02 03:37:03;;;;;;;67.92;23.87;;;;;;;-0.11;85.92;101101.17;1738608;82;25494;-51
2023/03/02 03:39:33;;;;;;;66.67;24.52;;;;;;;-0.08;85.91;101095.95;1739398;82;25464;-51
2023/03/02 03:42:02;;;;;;;66.33;23.45;;;;;;;-0.08;85.92;101099.94;1739540;82;25491;-49
2023/03/02 03:44:31;;;;;;;45.85;17.42;;;;;;;-0.07;85.81;101102.88;1739593;82;25314;-48
2023/03/02 03:47:00;;;;;;;59.60;23.02;;;;;;;-0.06;85.79;101102.66;1739541;82;27799;-49
2023/03/02 03:49:29;;;;;;;49.80;17.50;;;;;;;-0.04;85.86;101105.10;1739419;82;25441;-48
2023/03/02 03:51:56;;;;;;;62.17;24.27;;;;;;;-0.03;85.69;101105.41;1739546;82;25348;-48
2023/03/02 03:54:25;;;;;;;61.80;23.27;;;;;;;-0.02;85.62;101103.03;1739338;82;25308;-47
2023/03/02 03:56:52;;;;;;;44.53;16.55;;;;;;;-0.01;85.53;101109.47;1739604;82;25464;-49
2023/03/02 03:59:24;;;;;;;62.85;24.37;;;;;;;0.01;85.56;101105.27;1739462;82;27208;-48
2023/03/02 04:01:56;;;;;;;58.58;23.57;;;;;;;0.03;85.57;101111.70;1739369;82;25443;-50
2023/03/02 04:04:34;;;;;;;59.73;23.05;;;;;;;0.03;85.50;101109.84;1739324;82;25512;-49
2023/03/02 04:07:02;;;;;;;62.17;23.55;;;;;;;0.04;85.54;101102.17;1739567;82;25530;-48
2023/03/02 04:09:32;;;;;;;56.42;23.92;;;;;;;0.04;85.59;101096.05;1739407;82;25493;-48
2023/03/02 04:12:00;;;;;;;43.35;16.90;;;;;;;0.04;85.46;101095.52;1739078;82;27212;-48
2023/03/02 04:14:27;;;;;;;57.23;23.02;;;;;;;0.04;85.50;101099.52;1739414;82;25362;-48
2023/03/02 04:16:56;;;;;;;63.33;22.95;;;;;;;0.04;85.58;101092.86;1739377;82;25346;-49
2023/03/02 04:19:25;;;;;;;60.75;22.65;;;;;;;0.05;85.66;101098.98;1739492;82;25502;-52
2023/03/02 04:21:57;;;;;;;67.97;24.85;;;;;;;0.05;85.56;101099.82;1739564;82;25540;-48
2023/03/02 04:24:24;;;;;;;54.63;21.48;;;;;;;0.06;85.60;101096.63;1739470;82;27790;-48
2023/03/02 04:26:51;;;;;;;67.00;23.98;;;;;;;0.07;85.53;101104.89;1739303;82;25466;-49
2023/03/02 04:29:20;;;;;;;54.60;21.20;;;;;;;0.08;85.60;101102.55;1739352;82;25337;-51
2023/03/02 04:31:47;;;;;;;63.25;23.05;;;;;;;0.10;85.52;101108.45;1739470;82;27457;-49
2023/03/02 04:34:15;;;;;;;60.95;22.70;;;;;;;0.10;85.48;101103.13;1739378;82;25456;-50
2023/03/02 04:36:44;;;;;;;55.10;20.97;;;;;;;0.10;85.43;101102.64;1739356;82;27233;-49
2023/03/02 04:39:16;;;;;;;63.87;23.52;;;;;;;0.11;85.42;101093.61;1739548;82;25344;-51
2023/03/02 04:41:47;;;;;;;63.30;24.18;;;;;;;0.12;85.38;101097.91;1739479;82;25311;-49
2023/03/02 04:44:17;;;;;;;64.07;22.10;;;;;;;0.11;85.38;101093.61;1739419;82;25551;-48
2023/03/02 04:46:47;;;;;;;56.75;22.35;;;;;;;0.12;85.43;101087.27;1739400;82;25427;-49
2023/03/02 04:49:18;;;;;;;56.75;22.35;;;;;;;0.10;85.48;101095.15;1739561;82;27257;-49
2023/03/02 04:51:49;;;;;;;58.73;23.25;;;;;;;0.10;85.57;101088.50;1739339;82;25439;-51
2023/03/02 04:54:25;;;;;;;57.98;21.82;;;;;;;0.10;85.51;101089.34;1739364;82;25302;-48
2023/03/02 04:56:54;;;;;;;55.60;21.60;;;;;;;0.12;85.56;101085.09;1739418;82;25541;-49
2023/03/02 04:59:26;;;;;;;69.72;45.48;;;;;;;0.10;85.66;101089.83;1739574;82;25336;-48
2023/03/02 05:01:58;;;;;;;104.78;91.08;;;;;;;0.08;85.61;101091.37;1739557;82;27203;-49
2023/03/02 05:04:27;;;;;;;115.27;101.73;;;;;;;0.07;85.68;101092.92;1739544;82;25510;-49
2023/03/02 05:06:56;;;;;;;59.95;22.82;;;;;;;0.10;85.68;101099.98;1739531;82;25374;-49
2023/03/02 05:09:27;;;;;;;66.17;23.70;;;;;;;0.12;85.73;101101.89;1739643;82;25917;-49
2023/03/02 05:11:59;;;;;;;59.75;21.65;;;;;;;0.13;85.66;101106.69;1739491;82;25520;-48
2023/03/02 05:14:29;;;;;;;60.58;22.75;;;;;;;0.12;85.69;101092.58;1739575;82;27269;-48
2023/03/02 05:16:58;;;;;;;54.98;20.82;;;;;;;0.14;85.68;101097.69;1739425;82;25483;-48
2023/03/02 05:19:25;;;;;;;60.67;20.62;;;;;;;0.13;85.65;101103.50;1739660;82;25443;-48
2023/03/02 05:21:55;;;;;;;52.77;19.93;;;;;;;0.14;85.69;101105.14;1739705;82;25446;-49
2023/03/02 05:24:23;;;;;;;53.58;21.25;;;;;;;0.16;85.72;101095.09;1739648;82;25306;-48
2023/03/02 05:26:50;;;;;;;53.02;20.85;;;;;;;0.17;85.65;101098.55;1739531;82;27104;-48
2023/03/02 05:29:19;;;;;;;45.92;19.27;;;;;;;0.19;85.53;101105.83;1739366;82;25530;-48
2023/03/02 05:31:49;;;;;;;60.12;21.55;;;;;;;0.19;85.74;101103.16;1739682;82;25352;-49
2023/03/02 05:34:18;;;;;;;46.33;19.00;;;;;;;0.21;85.79;101115.73;1739611;82;25483;-48
2023/03/02 05:36:47;;;;;;;51.75;19.40;;;;;;;0.21;85.85;101109.59;1739631;82;25294;-47
2023/03/02 05:39:16;;;;;;;45.80;15.07;;;;;;;0.22;85.94;101112.54;1739731;82;27269;-48
2023/03/02 05:41:44;;;;;;;49.48;19.17;;;;;;;0.22;86.04;101111.20;1739507;82;25496;-49
2023/03/02 05:44:12;;;;;;;51.33;20.23;;;;;;;0.23;86.04;101110.19;1739769;82;25365;-48
2023/03/02 05:46:41;;;;;;;49.00;19.75;;;;;;;0.25;86.05;101120.89;1739468;82;25489;-50
2023/03/02 05:49:09;;;;;;;38.45;14.05;;;;;;;0.25;86.10;101119.56;1739654;82;25506;-48
2023/03/02 05:51:37;;;;;;;49.13;20.23;;;;;;;0.29;86.14;101118.60;1739657;82;27892;-48
2023/03/02 05:54:05;;;;;;;30.77;12.88;;;;;;;0.29;86.20;101119.93;1739518;82;27124;-48
2023/03/02 05:56:33;;;;;;;53.13;19.55;;;;;;;0.30;86.09;101125.04;1739515;82;25482;-48
2023/03/02 05:59:01;;;;;;;56.70;20.88;;;;;;;0.33;86.07;101137.11;1739449;82;25375;-48
2023/03/02 06:01:30;;;;;;;54.23;19.07;;;;;;;0.34;86.12;101132.06;1739546;82;25546;-46
2023/03/02 06:03:57;;;;;;;51.68;20.80;;;;;;;0.35;86.14;101135.84;1739605;82;27414;-48
2023/03/02 06:06:26;;;;;;;89.87;80.03;;;;;;;0.36;86.26;101148.13;1739436;82;25362;-46
2023/03/02 06:08:53;;;;;;;104.07;92.60;;;;;;;0.34;86.13;101143.55;1739633;82;25388;-48
2023/03/02 06:11:20;;;;;;;104.07;92.95;;;;;;;0.36;86.23;101148.13;1739460;82;25516;-48
2023/03/02 06:13:49;;;;;;;102.78;91.90;;;;;;;0.38;86.26;101148.44;1741325;82;25473;-48
2023/03/02 06:16:18;;;;;;;88.60;79.67;;;;;;;0.39;86.29;101145.52;1741569;82;27981;-47
2023/03/02 06:18:47;;;;;;;77.47;69.45;;;;;;;0.41;86.35;101148.80;1741642;82;25353;-47
2023/03/02 06:21:16;;;;;;;52.53;21.52;;;;;;;0.45;86.37;101155.30;1741906;82;25419;-49
2023/03/02 06:23:43;;;;;;;63.00;21.05;;;;;;;0.49;86.37;101161.80;1741672;82;25362;-48
2023/03/02 06:26:12;;;;;;;73.35;57.65;;;;;;;0.51;86.35;101166.91;1741584;82;25500;-49
2023/03/02 06:28:40;;;;;;;100.80;89.70;;;;;;;0.51;86.42;101166.91;1741676;82;29334;-50
2023/03/02 06:33:09;;;;;;;56.73;20.62;;;;;;;0.63;86.40;101169.16;1905464;74;34978;-47
2023/03/02 06:35:35;;;;;;;58.33;21.27;;;;;;;0.57;86.39;101174.03;1859728;77;25390;-48
2023/03/02 06:38:01;;;;;;;60.20;21.82;;;;;;;0.58;86.43;101175.67;1859809;77;27400;-47
2023/03/02 06:40:27;;;;;;;51.55;20.95;;;;;;;0.59;86.61;101169.28;1859816;76;25513;-48
2023/03/02 06:42:54;;;;;;;53.25;19.37;;;;;;;0.61;86.62;101171.20;1859857;77;25497;-48
2023/03/02 06:45:20;;;;;;;57.43;20.60;;;;;;;0.63;86.79;101173.16;1859813;76;25407;-47
2023/03/02 06:47:48;;;;;;;54.65;20.27;;;;;;;0.65;86.89;101167.08;1859889;77;25754;-47
2023/03/02 06:50:14;;;;;;;53.78;21.25;;;;;;;0.68;86.85;101173.80;1859882;76;27341;-47
2023/03/02 06:52:40;;;;;;;54.60;20.70;;;;;;;0.68;86.93;101177.30;1859824;76;26159;-51
2023/03/02 06:55:10;;;;;;;66.92;20.77;;;;;;;0.70;86.90;101169.09;1859780;77;25482;-47
2023/03/02 06:57:37;;;;;;;54.25;20.17;;;;;;;0.70;86.98;101173.89;1859846;76;25580;-48
2023/03/02 07:00:14;;;;;;;55.58;20.80;;;;;;;0.73;87.13;101176.12;1859205;77;25552;-47
2023/03/02 07:02:40;;;;;;;61.55;23.98;;;;;;;0.77;87.12;101178.31;1859239;76;27492;-48
2023/03/02 07:05:08;;;;;;;51.90;20.80;;;;;;;0.78;87.04;101179.95;1859748;77;25169;-48
2023/03/02 07:07:34;;;;;;;50.23;19.60;;;;;;;0.78;87.15;101175.43;1859813;77;25445;-48
2023/03/02 07:10:00;;;;;;;50.50;19.67;;;;;;;0.82;87.23;101176.63;1859738;77;25480;-47
2023/03/02 07:12:26;;;;;;;65.87;21.12;;;;;;;0.86;87.32;101174.33;1859828;76;25596;-47
2023/03/02 07:14:53;;;;;;;52.85;19.77;;;;;;;0.88;87.33;101175.72;1859832;76;27548;-47
2023/03/02 07:17:19;;;;;;;55.73;19.23;;;;;;;0.91;87.37;101172.63;1859729;77;25330;-47
2023/03/02 07:19:45;;;;;;;62.62;20.10;;;;;;;0.95;87.40;101171.66;1859855;77;25501;-48
2023/03/02 07:22:11;;;;;;;59.50;20.00;;;;;;;0.98;87.35;101166.41;1859842;77;25220;-49
2023/03/02 07:24:39;;;;;;;55.35;20.27;;;;;;;1.02;87.42;101168.41;1859832;77;25472;-49
2023/03/02 07:27:05;;;;;;;55.80;22.15;;;;;;;1.04;87.36;101165.00;1859780;76;27458;-49
2023/03/02 07:29:31;;;;;;;51.20;19.00;;;;;;;1.06;87.35;101166.92;1858669;76;25956;-48
2023/03/02 07:32:01;;;;;;;51.10;19.92;;;;;;;1.11;87.30;101164.92;1838622;77;25709;-48
2023/03/02 07:34:29;;;;;;;52.40;19.77;;;;;;;1.11;87.05;101160.39;1862929;77;27359;-48
2023/03/02 07:36:55;;;;;;;42.27;18.80;;;;;;;1.14;87.25;101159.64;1863114;77;25568;-47
2023/03/02 07:39:23;;;;;;;54.83;21.42;;;;;;;1.17;87.08;101158.67;1863091;77;27537;-47
2023/03/02 07:41:49;;;;;;;52.45;21.15;;;;;;;1.19;87.19;101159.78;1863107;77;25476;-49
2023/03/02 07:44:15;;;;;;;44.60;19.05;;;;;;;1.22;87.27;101156.67;1862526;77;25473;-46
2023/03/02 07:46:41;;;;;;;51.45;19.52;;;;;;;1.25;87.52;101155.70;1862441;76;25555;-47
2023/03/02 07:49:08;;;;;;;55.83;19.15;;;;;;;1.29;87.58;101155.56;1862523;76;25406;-47
2023/03/02 07:51:34;;;;;;;53.68;20.85;;;;;;;1.32;87.49;101157.48;1831635;75;28153;-47
2023/03/02 07:54:01;;;;;;;47.73;18.92;;;;;;;1.35;87.42;101156.50;1778585;80;25814;-49
2023/03/02 07:56:28;;;;;;;47.65;19.17;;;;;;;1.37;87.28;101150.95;1778544;80;25358;-48
2023/03/02 07:58:55;;;;;;;47.10;19.80;;;;;;;1.39;87.24;101147.53;1778653;80;25373;-48
2023/03/02 08:01:21;;;;;;;50.35;18.00;;;;;;;1.43;87.11;101148.19;1778718;80;25558;-50
2023/03/02 08:03:48;;;;;;;50.95;18.77;;;;;;;1.44;87.03;101147.66;1778640;80;27513;-48
2023/03/02 08:06:14;;;;;;;47.13;17.95;;;;;;;1.45;86.99;101146.64;1778421;80;25602;-48
2023/03/02 08:08:40;;;;;;;40.17;17.45;;;;;;;1.46;86.99;101149.08;1777311;80;26214;-48
2023/03/02 08:11:14;;;;;;;44.25;19.27;;;;;;;1.47;86.87;101147.22;1778168;80;27405;-47
2023/03/02 08:13:42;;;;;;;49.40;18.10;;;;;;;1.45;86.67;101143.44;1778403;80;25656;-48
2023/03/02 08:16:11;;;;;;;43.08;17.80;;;;;;;1.42;86.45;101143.09;1778571;80;27559;-48
2023/03/02 08:18:38;;;;;;;;;;;;;;;1.41;86.61;101147.58;1781169;80;25597;-49
2023/03/02 08:21:13;;;;;;;47.88;17.30;;;;;;;1.41;86.84;101143.58;1778618;80;25378;-48
2023/03/02 08:23:40;;;;;;;41.88;18.37;;;;;;;1.39;86.68;101142.20;1777335;80;25610;-48
2023/03/02 08:26:08;;;;;;;48.30;19.35;;;;;;;1.38;86.72;101133.90;1778559;80;25456;-49
2023/03/02 08:28:36;;;;;;;44.58;18.50;;;;;;;1.36;86.88;101135.45;1778571;80;27530;-46
2023/03/02 08:31:04;;;;;;;43.63;18.87;;;;;;;1.38;87.39;101134.73;1777940;80;25274;-49
2023/03/02 08:33:33;;;;;;;45.35;20.48;;;;;;;1.42;87.41;101131.89;1778559;80;25618;-47
2023/03/02 08:36:10;;;;;;;40.95;16.60;;;;;;;1.45;87.75;101131.44;1778543;80;25623;-48
2023/03/02 08:38:38;;;;;;;48.20;21.70;;;;;;;1.49;87.63;101124.60;1778590;80;25203;-48
2023/03/02 08:41:10;;;;;;;52.33;21.87;;;;;;;1.52;87.42;101133.21;1778341;80;27661;-46
2023/03/02 08:43:36;;;;;;;47.78;20.45;;;;;;;1.57;87.56;101130.67;1778475;80;25626;-46
2023/03/02 08:46:04;;;;;;;48.73;21.95;;;;;;;1.61;87.80;101135.30;1777290;80;25927;-48
2023/03/02 08:48:32;;;;;;;41.63;18.90;;;;;;;1.65;87.54;101128.98;1777827;80;25701;-46
2023/03/02 08:51:14;;;;;;;48.28;24.37;;;;;;;1.68;87.68;101129.34;1777909;80;25691;-48
2023/03/02 08:53:46;;;;;;;44.77;20.25;;;;;;;1.74;87.60;101131.63;1768698;79;27679;-48
2023/03/02 08:56:32;;;;;;;45.05;17.05;;;;;;;1.77;87.63;101132.51;1769038;81;26020;-48
2023/03/02 08:59:03;;;;;;;47.55;18.42;;;;;;;1.82;87.62;101125.13;1769116;81;25697;-46
2023/03/02 09:01:34;;;;;;;46.28;16.60;;;;;;;1.83;87.41;101129.44;1769645;81;25405;-47
2023/03/02 09:04:05;;;;;;;43.00;17.15;;;;;;;1.88;87.45;101132.23;1769824;81;25551;-47
2023/03/02 09:06:36;;;;;;;40.98;17.15;;;;;;;1.90;87.23;101132.00;1769831;81;27458;-49
2023/03/02 09:09:05;;;;;;;48.55;20.00;;;;;;;1.93;87.44;101135.02;1769657;81;25605;-47
2023/03/02 09:11:33;;;;;;;30.48;13.62;;;;;;;1.98;87.45;101131.66;1769840;81;25621;-49
2023/03/02 09:13:59;;;;;;;45.03;20.15;;;;;;;2.00;87.21;101136.24;1769670;81;27440;-49
2023/03/02 09:17:26;;;;;;;40.92;18.98;;;;;;;2.02;87.30;101130.15;1769760;81;25554;-51
2023/03/02 09:19:53;;;;;;;46.45;28.75;;;;;;;2.07;87.36;101130.27;1769722;81;28605;-49
2023/03/02 09:22:21;;;;;;;61.13;54.27;;;;;;;2.13;87.39;101132.52;1769662;81;25450;-48
2023/03/02 09:24:47;;;;;;;98.62;89.15;;;;;;;2.18;87.37;101133.47;1769738;81;25613;-48
2023/03/02 09:27:13;;;;;;;99.15;89.90;;;;;;;2.22;87.17;101133.81;1769707;81;25420;-48
2023/03/02 11:41:33;;;;;;;26.97;13.48;;;;;;;3.18;79.95;101073.22;1868258;76;34726;-49
2023/03/02 11:44:12;;;;;;;26.75;12.63;;;;;;;3.03;80.56;101064.42;1824448;78;25355;-49
2023/03/02 11:46:40;;;;;;;33.30;13.83;;;;;;;3.03;80.87;101068.43;1824617;78;27479;-49
2023/03/02 11:49:12;;;;;;;28.42;13.45;;;;;;;3.01;80.73;101070.51;1824316;78;25411;-50
2023/03/02 11:51:44;;;;;;;34.35;17.48;;;;;;;2.98;80.65;101063.80;1824545;78;25363;-49
2023/03/02 11:54:38;;;;;;;34.63;15.55;;;;;;;2.94;80.71;101060.49;1824336;78;25344;-48
2023/03/02 11:57:10;;;;;;;29.05;15.23;;;;;;;2.94;80.87;101065.30;1824123;78;25648;-49
2023/03/02 11:59:39;;;;;;;24.92;13.15;;;;;;;2.92;80.61;101062.59;1791014;78;28011;-47
2023/03/02 12:02:11;;;;;;;29.45;14.20;;;;;;;2.90;80.64;101058.02;1824418;78;25450;-48
2023/03/02 12:04:39;;;;;;;28.98;13.62;;;;;;;2.88;80.55;101061.44;1824460;78;25542;-49
2023/03/02 12:07:22;;;;;;;33.83;14.55;;;;;;;2.88;80.81;101064.11;1824341;78;25586;-47
2023/03/02 12:10:08;;;;;;;30.97;13.22;;;;;;;2.89;80.99;101059.06;1791982;79;25545;-48
2023/03/02 12:12:40;;;;;;;25.60;12.53;;;;;;;2.86;80.48;101055.02;1791979;79;27480;-49
2023/03/02 12:15:36;;;;;;;32.00;13.68;;;;;;;2.82;80.26;101053.86;1789302;79;27321;-49
2023/03/02 12:18:25;;;;;;;28.85;13.78;;;;;;;2.83;80.63;101058.67;1791983;80;25413;-49
2023/03/02 12:21:15;;;;;;;30.43;15.57;;;;;;;2.82;80.60;101055.19;1792088;79;25441;-49
2023/03/02 12:23:57;;;;;;;30.48;14.18;;;;;;;2.82;80.67;101051.72;1792093;79;25405;-50
2023/03/02 12:26:31;;;;;;;35.28;14.85;;;;;;;2.81;80.54;101048.25;1791966;80;27507;-48
2023/03/02 12:29:13;;;;;;;29.40;15.83;;;;;;;2.80;80.56;101050.62;1791202;80;25581;-49
2023/03/02 12:31:47;;;;;;;28.73;14.38;;;;;;;2.80;80.64;101042.60;1790534;79;25959;-48
2023/03/02 12:34:29;;;;;;;24.95;13.43;;;;;;;2.80;80.36;101041.27;1791606;79;25905;-49
2023/03/02 12:37:04;;;;;;;26.85;13.93;;;;;;;2.80;80.41;101042.60;1792012;80;25422;-49
2023/03/02 12:40:14;;;;;;;36.85;19.30;;;;;;;2.82;80.45;101042.37;1790839;79;27486;-51
2023/03/02 12:42:52;;;;;;;39.75;17.07;;;;;;;2.85;80.91;101037.36;1797748;79;25368;-51
2023/03/02 12:46:04;;;;;;;34.58;15.30;;;;;;;2.96;81.11;101031.16;1797805;79;25538;-50
2023/03/02 12:48:47;;;;;;;25.55;11.63;;;;;;;3.05;80.97;101028.07;1797910;79;26118;-49
2023/03/02 12:51:20;;;;;;;27.30;13.03;;;;;;;3.20;81.43;101031.01;1797687;79;25420;-48
2023/03/02 12:54:04;;;;;;;36.30;17.60;;;;;;;3.34;81.55;101025.64;1762102;81;28655;-51
2023/03/02 12:56:32;;;;;;;72.17;37.78;;;;;;;3.46;81.01;101016.20;1745536;82;25707;-50
2023/03/02 12:59:00;;;;;;;62.80;32.08;;;;;;;3.57;80.82;101017.17;1731852;82;25576;-48
2023/03/02 13:01:31;;;;;;;68.75;33.35;;;;;;;3.61;79.75;101012.97;1745505;82;25579;-48
2023/03/02 13:03:59;;;;;;;32.42;16.50;;;;;;;3.59;79.25;101009.70;1732009;82;25414;-47
2023/03/02 13:06:31;;;;;;;35.75;17.20;;;;;;;3.59;78.99;101006.23;1722132;82;27933;-47
2023/03/02 13:09:00;;;;;;;62.98;32.08;;;;;;;3.59;79.03;101006.23;1706929;82;25489;-48
2023/03/02 13:11:36;;;;;;;115.25;57.10;;;;;;;3.64;79.40;101001.75;1745589;82;25609;-47
2023/03/02 13:14:16;;;;;;;38.45;19.87;;;;;;;3.73;79.72;101000.30;1731906;82;26200;-47
2023/03/02 13:16:53;;;;;;;36.75;18.60;;;;;;;3.85;79.42;101007.43;1761472;81;25541;-51
2023/03/02 13:19:22;;;;;;;31.82;15.95;;;;;;;3.92;79.19;100998.69;1745626;82;27579;-51
2023/03/02 13:21:50;;;;;;;34.13;15.93;;;;;;;3.99;78.83;100997.17;1731739;82;25761;-50
2023/03/02 13:24:56;;;;;;;30.47;15.03;;;;;;;4.03;78.28;100994.27;1745826;82;25598;-50
2023/03/02 13:27:26;;;;;;;21.62;11.38;;;;;;;4.04;77.82;100991.34;1654669;85;25672;-51
2023/03/02 13:29:55;;;;;;;18.98;10.78;;;;;;;4.08;77.20;100999.16;1706594;84;25231;-49
2023/03/02 13:32:26;;;;;;;20.10;9.78;;;;;;;4.09;76.72;100995.97;1726906;83;27518;-51
2023/03/02 13:34:59;;;;;;;17.30;9.88;;;;;;;4.07;76.44;100994.88;1695888;84;25730;-52
2023/03/02 13:37:42;;;;;;;19.85;9.55;;;;;;;4.06;76.23;100993.24;1726418;83;25636;-49
2023/03/02 13:40:31;;;;;;;22.17;10.45;;;;;;;4.07;76.19;100984.16;1693115;84;25523;-50
2023/03/02 13:43:00;;;;;;;20.08;11.10;;;;;;;4.09;76.08;100987.39;1715969;83;25656;-50
2023/03/02 13:45:31;;;;;;;24.80;13.07;;;;;;;4.09;75.82;100982.05;1718419;83;27947;-49
2023/03/02 13:48:03;;;;;;;23.32;11.38;;;;;;;4.08;75.76;100979.07;1715929;83;25587;-49